»·PEaware :: SWA887 KSLC-KDEN

SWA887 :: KSLC-KDEN

FLIGHT INFORMATION

Flight Status: Arrived
Operator:
Southwest Airlines
More flights by this operator :: More flights under this callsign
Pilot: Patricio R. (14780)
Aircraft: BOEING 737-200
(B732)
More flights by this aircraft type
Origin: KSLC Salt Lake City Intl
United States
Destination: KDEN Denver Intl
United States
More flights between these airports :: More routes between these airports
Route: SLC4 OCS V328 CHE TOMSN6
File this flight plan on PilotEdge
Remarks: PBN / A1B2 DOF / 180413 REG / N275SB EET / KZDV0025 OPR / SWA RMK / TCAS SIMBRIEF
Altitude:
(Current/Filed)
31,000ft
Speed:
(Current/Filed)
430kts
Departed: 13-Apr-18 10:25 AM
Arrived: 13-Apr-18 11:42 AM
Distance/Time
Traveled:
339nm/1:16
Distance/Time
To Go:
Arrived

Flight Plot

Page will automatically refresh every two minutes.

Flight plan parsing failed; only flown route is shown


Map Options




Map Legend


Flown Route
Filed Route
Departure Airport
Arrival Airport
Navaid (VOR, NDB)
Fix

Horizontal Profiles

Position Reports

Time Latitude Longitude Heading Altitude Ground
Speed
13-Apr-18 09:49 40.789139 -111.977969 225 4236ft 0kts
13-Apr-18 09:50 40.789139 -111.977969 225 4236ft 0kts
13-Apr-18 09:51 40.789139 -111.977969 225 4236ft 0kts
13-Apr-18 09:52 40.789139 -111.977969 225 4236ft 0kts
13-Apr-18 09:53 40.789139 -111.977969 225 4236ft 0kts
13-Apr-18 09:54 40.789139 -111.977969 225 4236ft 0kts
13-Apr-18 09:55 40.789139 -111.977969 225 4236ft 0kts
13-Apr-18 09:56 40.789139 -111.977969 225 4236ft 0kts
13-Apr-18 09:57 40.789139 -111.977969 225 4236ft 0kts
13-Apr-18 09:58 40.789139 -111.977969 225 4236ft 0kts
13-Apr-18 09:59 40.789139 -111.977969 225 4236ft 0kts
13-Apr-18 10:00 40.789139 -111.977969 225 4236ft 0kts
13-Apr-18 10:01 40.789139 -111.977969 225 4236ft 0kts
13-Apr-18 10:02 40.789139 -111.977969 225 4236ft 0kts
13-Apr-18 10:03 40.789139 -111.977969 225 4236ft 0kts
13-Apr-18 10:04 40.789139 -111.977969 225 4236ft 0kts
13-Apr-18 10:05 40.789139 -111.977969 225 4236ft 0kts
13-Apr-18 10:06 40.789139 -111.977969 225 4236ft 0kts
13-Apr-18 10:07 40.789139 -111.977969 225 4236ft 0kts
13-Apr-18 10:08 40.789139 -111.977969 225 4236ft 0kts
13-Apr-18 10:09 40.789139 -111.977969 225 4236ft 0kts
13-Apr-18 10:10 40.789139 -111.977969 225 4236ft 0kts
13-Apr-18 10:11 40.789139 -111.977969 225 4236ft 0kts
13-Apr-18 10:12 40.789139 -111.977969 225 4236ft 0kts
13-Apr-18 10:13 40.789139 -111.977969 225 4236ft 0kts
13-Apr-18 10:14 40.789139 -111.977969 225 4236ft 0kts
13-Apr-18 10:15 40.789247 -111.977824 225 4236ft 2kts
13-Apr-18 10:16 40.789691 -111.977691 125 4236ft 2kts
13-Apr-18 10:17 40.789734 -111.977916 85 4236ft 0kts
13-Apr-18 10:18 40.789734 -111.977916 85 4236ft 0kts
13-Apr-18 10:19 40.787272 -111.976776 175 4236ft 16kts
13-Apr-18 10:20 40.781707 -111.976134 175 4236ft 20kts
13-Apr-18 10:21 40.776435 -111.974997 175 4236ft 18kts
13-Apr-18 10:22 40.774815 -111.974823 167 4236ft 0kts
13-Apr-18 10:23 40.774512 -111.974043 66 4236ft 10kts
13-Apr-18 10:24 40.793313 -111.975181 352 4445ft 161kts
13-Apr-18 10:25 40.843603 -111.982993 351 7264ft 213kts
13-Apr-18 10:26 40.901094 -111.992892 351 10087ft 235kts
13-Apr-18 10:27 40.972550 -112.005451 351 12226ft 270kts
13-Apr-18 10:28 41.046135 -111.998855 37 14619ft 292kts
13-Apr-18 10:29 41.078879 -111.915076 62 16503ft 308kts
13-Apr-18 10:30 41.108630 -111.794529 65 18668ft 315kts
13-Apr-18 10:31 41.131990 -111.681394 68 20307ft 324kts
13-Apr-18 10:32 41.154312 -111.563986 68 21678ft 333kts
13-Apr-18 10:33 41.176524 -111.443377 68 23240ft 341kts
13-Apr-18 10:34 41.198736 -111.320023 68 24673ft 350kts
13-Apr-18 10:35 41.221305 -111.193002 67 26023ft 356kts
13-Apr-18 10:36 41.244566 -111.063566 67 27135ft 365kts
13-Apr-18 10:37 41.268414 -110.930508 68 28031ft 376kts
13-Apr-18 10:38 41.292575 -110.794079 67 28963ft 383kts
13-Apr-18 10:39 41.316953 -110.655605 69 29908ft 386kts
13-Apr-18 10:40 41.341344 -110.515486 69 30650ft 393kts
13-Apr-18 10:41 41.366006 -110.372683 69 30913ft 399kts
13-Apr-18 10:42 41.390289 -110.228166 71 30906ft 402kts
13-Apr-18 10:43 41.415013 -110.082864 73 30909ft 404kts
13-Apr-18 10:44 41.439620 -109.936860 73 31210ft 407kts
13-Apr-18 10:45 41.464453 -109.788772 73 31221ft 411kts
13-Apr-18 10:46 41.489213 -109.639524 75 31085ft 417kts
13-Apr-18 10:47 41.514100 -109.488101 75 31080ft 419kts
13-Apr-18 10:48 41.538488 -109.338140 76 31083ft 421kts
13-Apr-18 10:49 41.562658 -109.185699 76 31085ft 423kts
13-Apr-18 10:50 41.587181 -109.032389 77 31082ft 423kts
13-Apr-18 10:51 41.611674 -108.878322 77 31081ft 423kts
13-Apr-18 10:52 41.635915 -108.724583 77 31081ft 423kts
13-Apr-18 10:53 41.659781 -108.571253 79 31082ft 422kts
13-Apr-18 10:54 41.651665 -108.448350 123 31101ft 417kts
13-Apr-18 10:55 41.526873 -108.385701 170 31080ft 427kts
13-Apr-18 10:56 41.409321 -108.367819 170 31080ft 427kts
13-Apr-18 10:57 41.291762 -108.351091 171 31079ft 427kts
13-Apr-18 10:58 41.176862 -108.329138 151 31104ft 420kts
13-Apr-18 10:59 41.096717 -108.220720 128 31113ft 415kts
13-Apr-18 11:00 41.023351 -108.103497 127 31097ft 415kts
13-Apr-18 11:01 40.950034 -107.985753 127 31100ft 414kts
13-Apr-18 11:02 40.881363 -107.876403 128 31100ft 414kts
13-Apr-18 11:03 40.807994 -107.760531 127 31100ft 413kts
13-Apr-18 11:04 40.734936 -107.644429 127 31079ft 413kts
13-Apr-18 11:05 40.661409 -107.528116 127 31079ft 413kts
13-Apr-18 11:06 40.588044 -107.412402 127 31097ft 413kts
13-Apr-18 11:07 40.516154 -107.299370 128 31074ft 414kts
13-Apr-18 11:08 40.500946 -107.159287 75 31085ft 408kts
13-Apr-18 11:09 40.518047 -107.013411 89 31046ft 409kts
13-Apr-18 11:10 40.518836 -106.863905 90 31017ft 410kts
13-Apr-18 11:11 40.518489 -106.714162 90 31011ft 405kts
13-Apr-18 11:12 40.517791 -106.576231 90 29977ft 366kts
13-Apr-18 11:13 40.517037 -106.465067 90 28333ft 357kts
13-Apr-18 11:14 40.516039 -106.337286 90 26313ft 351kts
13-Apr-18 11:15 40.514512 -106.210467 89 24453ft 341kts
13-Apr-18 11:16 40.513927 -106.086896 88 22815ft 335kts
13-Apr-18 11:17 40.513745 -105.945768 87 21349ft 331kts
13-Apr-18 11:18 40.513608 -105.824680 86 20192ft 335kts
13-Apr-18 11:19 40.513346 -105.705414 85 19602ft 332kts
13-Apr-18 11:20 40.485159 -105.591979 137 18912ft 347kts
13-Apr-18 11:21 40.412781 -105.507937 134 18892ft 350kts
13-Apr-18 11:22 40.353254 -105.434972 133 18892ft 353kts
13-Apr-18 11:23 40.285964 -105.351642 134 17444ft 349kts
13-Apr-18 11:24 40.218298 -105.268370 135 17081ft 324kts
13-Apr-18 11:25 40.151615 -105.185910 134 17089ft 338kts
13-Apr-18 11:26 40.082937 -105.101048 134 16065ft 345kts
13-Apr-18 11:27 40.013994 -105.016145 135 14476ft 338kts
13-Apr-18 11:28 39.946244 -104.933009 135 13105ft 325kts
13-Apr-18 11:29 39.884019 -104.857009 136 12187ft 304kts
13-Apr-18 11:30 39.814519 -104.804501 178 11056ft 287kts
13-Apr-18 11:31 39.734492 -104.796969 178 10074ft 290kts
13-Apr-18 11:32 39.655332 -104.792105 178 9036ft 277kts
13-Apr-18 11:33 39.583048 -104.782110 144 9035ft 255kts
13-Apr-18 11:34 39.566262 -104.703352 56 8023ft 215kts
13-Apr-18 11:35 39.611807 -104.666670 16 8042ft 213kts
13-Apr-18 11:36 39.667383 -104.662690 358 8042ft 196kts
13-Apr-18 11:37 39.717609 -104.661903 358 7574ft 169kts
13-Apr-18 11:38 39.760451 -104.661370 357 6761ft 132kts
13-Apr-18 11:39 39.795451 -104.660790 357 6052ft 123kts
13-Apr-18 11:40 39.829417 -104.660503 358 5452ft 124kts
13-Apr-18 11:41 39.846763 -104.660428 351 5443ft 35kts
13-Apr-18 11:42 39.849261 -104.661673 329 5443ft 0kts
13-Apr-18 11:43 39.851585 -104.662389 1 5443ft 21kts
13-Apr-18 11:44 39.858531 -104.662299 360 5443ft 25kts
13-Apr-18 11:45 39.861152 -104.665528 285 5443ft 19kts
13-Apr-18 11:46 39.861287 -104.674240 275 5443ft 0kts

Navigation Log

Ident Type
Flight plan parsing failed, navigation log unavailable